Terminal Aerodrome Forecast
Issued by NWS Corpus Christi, TX

Home | Current Version | Previous Version | Text Only | Print | Product List | Glossary On
Versions: 1 2 3 4 5 6 7 8 9 10 11 12 13 14 15 16 17 18
000
FTUS44 KCRP 042320
TAFVCT
TAF
KVCT 042320Z 0500/0524 14015G22KT P6SM SCT035 BKN250
     FM050200 15008KT P6SM FEW025
     FM050800 16004KT 6SM BR BKN015
     FM051500 17012G18KT P6SM SCT035=

USA.gov is the U.S. government's official web portal to all federal, state and local government web resources and services.